.
WxDataArchive / Data Records for 2008-01-19
2008-01-18 January 2008 2008-01-20

Data Records for Saturday, 19 January 2008

Time	Temp	Chill	HIndex	Humid	Dewpt	 Wind 	HiWind	WindDir	Rain 	Barom 
-----	----	-----	------	-----	-----	------	------	-------	-----	----- 
00:00	27.5	27.5	27.5	76	20.9	3	11	270	0.00	30.034 
00:05	27.5	27.5	27.5	76	20.9	2	6	248	0.00	30.031 
00:10	27.3	27.3	27.3	77	21.1	3	10	270	0.00	30.035 
00:15	27.2	27.2	27.2	77	21.0	3	9	248	0.00	30.035 
00:20	27.0	27.0	27.0	77	20.8	3	9	248	0.00	30.036 
00:25	26.9	22.2	26.9	77	20.7	4	12	270	0.00	30.035 
00:30	26.7	22.0	26.7	77	20.5	4	7	270	0.00	30.035 
00:35	26.7	22.0	26.7	78	20.8	4	12	270	0.00	30.037 
00:40	26.6	21.8	26.6	78	20.7	4	13	270	0.00	30.037 
00:45	26.3	26.3	26.3	78	20.4	3	7	270	0.00	30.040 
00:50	26.0	26.0	26.0	77	19.8	3	6	270	0.00	30.041 
00:55	25.4	25.4	25.4	76	18.9	3	7	270	0.00	30.042 
01:00	25.1	25.1	25.1	75	18.3	3	13	270	0.00	30.047 
01:05	24.7	19.6	24.7	74	17.6	4	14	270	0.00	30.043 
01:10	24.4	19.3	24.4	73	17.0	4	11	270	0.00	30.046 
01:15	24.1	24.1	24.1	74	17.0	3	7	270	0.00	30.048 
01:20	23.9	23.9	23.9	74	16.8	2	6	270	0.00	30.051 
01:25	23.6	23.6	23.6	73	16.2	3	7	270	0.00	30.051 
01:30	23.3	23.3	23.3	72	15.6	3	8	270	0.00	30.049 
01:35	22.9	22.9	22.9	72	15.2	3	8	270	0.00	30.052 
01:40	22.7	22.7	22.7	72	15.1	3	10	270	0.00	30.052 
01:45	22.4	22.4	22.4	73	15.1	2	6	270	0.00	30.055 
01:50	22.2	22.2	22.2	73	14.9	3	6	270	0.00	30.058 
01:55	22.1	22.1	22.1	74	15.1	2	7	270	0.00	30.057 
02:00	22.1	22.1	22.1	74	15.1	3	6	270	0.00	30.059 
02:05	22.1	22.1	22.1	74	15.1	3	5	270	0.00	30.058 
02:10	22.1	22.1	22.1	74	15.1	3	12	270	0.00	30.060 
02:15	21.9	21.9	21.9	71	14.0	3	9	270	0.00	30.058 
02:20	21.8	21.8	21.8	69	13.2	2	5	270	0.00	30.058 
02:25	21.8	21.8	21.8	70	13.5	2	5	270	0.00	30.061 
02:30	21.8	21.8	21.8	70	13.5	3	6	270	0.00	30.062 
02:35	21.8	21.8	21.8	70	13.5	3	6	270	0.00	30.065 
02:40	21.6	16.1	21.6	71	13.7	4	10	270	0.00	30.069 
02:45	21.4	21.4	21.4	71	13.5	3	6	270	0.00	30.068 
02:50	21.3	21.3	21.3	70	13.1	2	7	270	0.00	30.070 
02:55	21.1	21.1	21.1	71	13.2	3	6	270	0.00	30.074 
03:00	20.8	20.8	20.8	70	12.6	3	5	270	0.00	30.076 
03:05	20.6	20.6	20.6	71	12.7	2	6	270	0.00	30.078 
03:10	20.3	14.6	20.3	69	11.8	4	11	270	0.00	30.084 
03:15	20.0	20.0	20.0	70	11.8	2	6	248	0.00	30.090 
03:20	19.9	19.9	19.9	69	11.4	3	6	270	0.00	30.092 
03:25	19.4	19.4	19.4	68	10.6	3	7	270	0.00	30.091 
03:30	19.1	19.1	19.1	67	10.0	3	7	270	0.00	30.094 
03:35	18.4	18.4	18.4	66	9.0	2	7	270	0.00	30.095 
03:40	18.1	18.1	18.1	65	8.3	3	6	270	0.00	30.102 
03:45	17.8	17.8	17.8	65	8.1	2	6	270	0.00	30.105 
03:50	17.7	17.7	17.7	65	8.0	2	5	270	0.00	30.106 
03:55	17.5	17.5	17.5	65	7.8	2	6	270	0.00	30.105 
04:00	17.2	17.2	17.2	65	7.5	2	4	270	0.00	30.109 
04:05	17.2	17.2	17.2	65	7.5	2	5	270	0.00	30.109 
04:10	17.2	17.2	17.2	66	7.8	1	5	248	0.00	30.110 
04:15	17.2	17.2	17.2	67	8.2	2	4	270	0.00	30.110 
04:20	17.0	17.0	17.0	65	7.3	2	6	248	0.00	30.111 
04:25	16.9	16.9	16.9	65	7.2	2	5	270	0.00	30.113 
04:30	16.7	16.7	16.7	65	7.0	2	6	270	0.00	30.111 
04:35	16.5	16.5	16.5	66	7.2	2	7	270	0.00	30.110 
04:40	16.2	16.2	16.2	67	7.2	1	5	270	0.00	30.111 
04:45	15.9	15.9	15.9	68	7.2	2	9	270	0.00	30.110 
04:50	15.4	15.4	15.4	68	6.8	1	4	270	0.00	30.111 
04:55	15.2	15.2	15.2	68	6.6	2	6	248	0.00	30.113 
05:00	15.1	15.1	15.1	68	6.5	1	5	248	0.00	30.115 
05:05	14.9	14.9	14.9	68	6.3	1	5	248	0.00	30.123 
05:10	14.8	14.8	14.8	69	6.5	2	7	248	0.00	30.126 
05:15	14.6	14.6	14.6	69	6.3	2	9	270	0.00	30.128 
05:20	14.4	14.4	14.4	69	6.1	2	7	270	0.00	30.129 
05:25	14.1	14.1	14.1	70	6.1	2	5	248	0.00	30.129 
05:30	14.0	14.0	14.0	70	6.0	2	9	248	0.00	30.131 
05:35	13.8	13.8	13.8	70	5.9	3	9	248	0.00	30.131 
05:40	13.6	13.6	13.6	70	5.7	2	6	248	0.00	30.130 
05:45	13.5	13.5	13.5	70	5.6	2	6	270	0.00	30.130 
05:50	13.5	13.5	13.5	70	5.6	1	3	248	0.00	30.131 
05:55	13.3	13.3	13.3	70	5.4	0	3	248	0.00	30.132 
06:00	13.1	13.1	13.1	70	5.2	0	3	248	0.00	30.131 
06:05	12.9	12.9	12.9	70	5.0	2	9	248	0.00	30.135 
06:10	12.9	12.9	12.9	71	5.3	2	5	270	0.00	30.135 
06:15	12.9	12.9	12.9	71	5.3	1	3	248	0.00	30.134 
06:20	12.9	12.9	12.9	71	5.3	1	5	248	0.00	30.136 
06:25	12.8	12.8	12.8	71	5.2	1	5	270	0.00	30.134 
06:30	12.8	12.8	12.8	71	5.2	1	4	270	0.00	30.132 
06:35	12.8	12.8	12.8	72	5.5	1	7	248	0.00	30.133 
06:40	12.8	12.8	12.8	73	5.8	1	4	270	0.00	30.133 
06:45	12.8	12.8	12.8	74	6.1	2	7	270	0.00	30.133 
06:50	12.6	12.6	12.6	74	5.9	1	4	270	0.00	30.132 
06:55	12.4	12.4	12.4	75	6.0	1	3	270	0.00	30.132 
07:00	12.4	12.4	12.4	77	6.6	1	6	248	0.00	30.131 
07:05	12.3	12.3	12.3	77	6.5	1	4	270	0.00	30.132 
07:10	12.1	12.1	12.1	78	6.6	1	4	248	0.00	30.132 
07:15	11.9	11.9	11.9	77	6.1	2	6	270	0.00	30.133 
07:20	11.6	11.6	11.6	77	5.8	3	10	248	0.00	30.137 
07:25	11.4	11.4	11.4	77	5.6	3	6	270	0.00	30.140 
07:30	11.1	11.1	11.1	76	5.0	2	7	270	0.00	30.146 
07:35	10.7	10.7	10.7	76	4.7	3	9	270	0.00	30.147 
07:40	10.5	10.5	10.5	75	4.2	2	7	270	0.00	30.147 
07:45	10.4	10.4	10.4	76	4.4	2	6	270	0.00	30.151 
07:50	10.2	10.2	10.2	76	4.2	2	4	270	0.00	30.151 
07:55	9.9	9.9	9.9	76	3.9	2	11	270	0.00	30.158 
08:00	9.7	9.7	9.7	76	3.7	2	10	270	0.00	30.167 
08:05	9.5	9.5	9.5	76	3.5	3	9	270	0.00	30.168 
08:10	9.5	9.5	9.5	76	3.5	3	9	248	0.00	30.172 
08:15	9.3	1.9	9.3	76	3.3	4	11	248	0.00	30.169 
08:20	9.2	9.2	9.2	76	3.2	3	12	270	0.00	30.168 
08:25	9.0	9.0	9.0	76	3.0	3	9	248	0.00	30.173 
08:30	8.8	8.8	8.8	75	2.5	3	7	248	0.00	30.181 
08:35	8.8	8.8	8.8	75	2.5	3	9	248	0.00	30.179 
08:40	8.8	8.8	8.8	76	2.8	1	4	270	0.00	30.183 
08:45	8.8	8.8	8.8	75	2.5	2	7	248	0.00	30.184 
08:50	8.6	8.6	8.6	74	2.0	2	9	270	0.00	30.187 
08:55	8.4	8.4	8.4	74	1.8	1	6	248	0.00	30.194 
09:00	8.4	8.4	8.4	74	1.8	2	7	248	0.00	30.196 
09:05	8.4	8.4	8.4	74	1.8	3	7	248	0.00	30.192 
09:10	8.4	8.4	8.4	74	1.8	3	7	248	0.00	30.187 
09:15	8.3	8.3	8.3	73	1.5	3	7	270	0.00	30.187 
09:20	8.3	8.3	8.3	73	1.5	3	9	248	0.00	30.185 
09:25	8.4	8.4	8.4	74	1.8	2	8	270	0.00	30.187 
09:30	8.8	8.8	8.8	74	2.2	2	5	270	0.00	30.190 
09:35	8.8	8.8	8.8	73	1.9	3	9	270	0.00	30.186 
09:40	9.2	9.2	9.2	72	2.0	3	9	270	0.00	30.184 
09:45	9.2	9.2	9.2	71	1.7	2	9	270	0.00	30.185 
09:50	9.2	9.2	9.2	72	2.0	2	10	270	0.00	30.190 
09:55	9.5	9.5	9.5	72	2.3	1	4	248	0.00	30.192 
10:00	9.7	9.7	9.7	72	2.5	2	4	270	0.00	30.192 
10:05	9.9	9.9	9.9	71	2.4	2	5	270	0.00	30.194 
10:10	9.9	9.9	9.9	70	2.1	2	5	270	0.00	30.196 
10:15	10.0	10.0	10.0	69	1.9	2	7	270	0.00	30.193 
10:20	10.2	10.2	10.2	69	2.1	3	5	270	0.00	30.195 
10:25	10.0	10.0	10.0	67	1.3	3	6	270	0.00	30.197 
10:30	10.0	2.7	10.0	67	1.3	4	10	270	0.00	30.203 
10:35	10.2	10.2	10.2	68	1.8	3	10	270	0.00	30.210 
10:40	10.4	10.4	10.4	67	1.6	2	6	270	0.00	30.208 
10:45	10.9	10.9	10.9	67	2.1	2	7	270	0.00	30.201 
10:50	11.1	11.1	11.1	67	2.3	2	5	248	0.00	30.211 
10:55	11.6	11.6	11.6	65	2.1	2	5	270	0.00	30.212 
11:00	11.6	11.6	11.6	65	2.1	3	9	270	0.00	30.210 
11:05	11.9	11.9	11.9	65	2.4	2	5	270	0.00	30.211 
11:10	11.7	11.7	11.7	64	1.9	3	8	270	0.00	30.211 
11:15	11.7	11.7	11.7	64	1.9	2	6	270	0.00	30.211 
11:20	12.1	12.1	12.1	63	2.0	3	9	270	0.00	30.214 
11:25	12.6	12.6	12.6	64	2.8	2	6	292	0.00	30.214 
11:30	12.6	12.6	12.6	62	2.1	2	9	292	0.00	30.208 
11:35	12.4	12.4	12.4	61	1.5	3	6	270	0.00	30.202 
11:40	12.1	12.1	12.1	63	2.0	2	5	270	0.00	30.200 
11:45	12.4	12.4	12.4	61	1.5	3	7	270	0.00	30.197 
11:50	12.8	12.8	12.8	61	1.9	2	7	270	0.00	30.194 
11:55	12.3	12.3	12.3	61	1.5	2	5	270	0.00	30.192 
12:00	12.4	12.4	12.4	61	1.5	3	9	270	0.00	30.192 
12:05	12.9	12.9	12.9	61	2.0	3	9	338	0.00	30.193 
12:10	13.8	13.8	13.8	61	2.9	2	6	270	0.00	30.196 
12:15	14.0	14.0	14.0	60	2.7	3	6	270	0.00	30.198 
12:20	13.8	13.8	13.8	59	2.2	3	7	270	0.00	30.196 
12:25	13.8	13.8	13.8	57	1.4	3	10	315	0.00	30.190 
12:30	13.3	13.3	13.3	57	0.9	3	6	315	0.00	30.185 
12:35	13.3	13.3	13.3	58	1.3	3	9	315	0.00	30.184 
12:40	13.6	13.6	13.6	57	1.2	3	10	292	0.00	30.188 
12:45	14.0	14.0	14.0	56	1.2	2	5	292	0.00	30.194 
12:50	14.0	14.0	14.0	56	1.2	3	6	315	0.00	30.196 
12:55	13.8	13.8	13.8	54	0.3	3	10	315	0.00	30.196 
13:00	14.1	14.1	14.1	57	1.7	3	6	270	0.00	30.196 
13:05	13.6	13.6	13.6	54	0.1	3	6	270	0.00	30.196 
13:10	12.8	12.8	12.8	55	-0.3	2	7	270	0.00	30.197 
13:15	12.6	12.6	12.6	55	-0.5	3	7	270	0.00	30.197 
13:20	12.9	12.9	12.9	56	0.2	3	11	270	0.00	30.200 
13:25	12.8	12.8	12.8	56	0.1	3	7	270	0.00	30.195 
13:30	12.4	12.4	12.4	57	0.1	2	7	248	0.00	30.197 
13:35	13.3	13.3	13.3	56	0.6	2	9	270	0.00	30.196 
13:40	13.8	13.8	13.8	55	0.7	3	10	270	0.00	30.194 
13:45	14.4	14.4	14.4	54	0.8	2	5	270	0.00	30.189 
13:50	13.5	13.5	13.5	53	-0.4	3	6	270	0.00	30.196 
13:55	12.3	12.3	12.3	54	-1.1	2	5	270	0.00	30.196 
14:00	12.6	12.6	12.6	54	-0.9	2	6	270	0.00	30.195 
14:05	12.8	12.8	12.8	56	0.1	3	10	270	0.00	30.195 
14:10	13.5	13.5	13.5	54	-0.0	3	9	270	0.00	30.187 
14:15	14.1	14.1	14.1	54	0.5	2	5	270	0.00	30.186 
14:20	14.4	14.4	14.4	52	0.0	3	10	270	0.00	30.184 
14:25	14.3	14.3	14.3	53	0.3	2	6	270	0.00	30.183 
14:30	14.3	14.3	14.3	52	-0.1	3	5	270	0.00	30.182 
14:35	14.1	14.1	14.1	53	0.2	3	10	270	0.00	30.180 
14:40	13.8	13.8	13.8	53	-0.1	2	5	315	0.00	30.183 
14:45	12.8	12.8	12.8	54	-0.7	2	7	225	0.00	30.184 
14:50	12.8	12.8	12.8	54	-0.7	2	5	315	0.00	30.184 
14:55	12.8	12.8	12.8	54	-0.7	2	5	338	0.00	30.184 
15:00	12.8	12.8	12.8	53	-1.1	2	7	270	0.00	30.185 
15:05	12.6	12.6	12.6	54	-0.9	2	5	270	0.00	30.189 
15:10	12.3	12.3	12.3	53	-1.5	2	4	270	0.00	30.191 
15:15	11.9	11.9	11.9	54	-1.5	2	7	270	0.00	30.191 
15:20	11.6	11.6	11.6	54	-1.8	3	10	315	0.00	30.190 
15:25	11.7	11.7	11.7	54	-1.7	3	7	315	0.00	30.191 
15:30	12.1	12.1	12.1	54	-1.3	1	4	315	0.00	30.191 
15:35	12.4	12.4	12.4	53	-1.4	2	6	315	0.00	30.193 
15:40	12.4	12.4	12.4	52	-1.8	2	6	292	0.00	30.192 
15:45	12.4	12.4	12.4	51	-2.2	2	7	270	0.00	30.194 
15:50	11.6	11.6	11.6	51	-3.0	3	6	292	0.00	30.194 
15:55	11.1	11.1	11.1	52	-3.0	2	6	315	0.00	30.196 
16:00	11.4	11.4	11.4	52	-2.8	3	9	270	0.00	30.199 
16:05	11.7	11.7	11.7	51	-2.9	3	7	270	0.00	30.201 
16:10	11.6	11.6	11.6	52	-2.6	2	7	270	0.00	30.198 
16:15	11.1	11.1	11.1	50	-3.9	3	6	270	0.00	30.199 
16:20	10.5	10.5	10.5	51	-4.0	2	4	270	0.00	30.203 
16:25	10.4	10.4	10.4	52	-3.7	2	5	270	0.00	30.206 
16:30	10.5	10.5	10.5	54	-2.8	1	5	270	0.00	30.206 
16:35	10.5	10.5	10.5	53	-3.2	1	3	315	0.00	30.207 
16:40	10.0	10.0	10.0	54	-3.3	1	4	292	0.00	30.209 
16:45	9.3	9.3	9.3	55	-3.6	2	6	338	0.00	30.209 
16:50	9.2	9.2	9.2	56	-3.3	2	5	315	0.00	30.211 
16:55	9.2	9.2	9.2	56	-3.3	1	4	315	0.00	30.210 
17:00	9.2	9.2	9.2	57	-2.9	0	2	315	0.00	30.209 
17:05	9.2	9.2	9.2	54	-4.0	2	5	315	0.00	30.212 
17:10	9.2	9.2	9.2	54	-4.0	2	7	270	0.00	30.213 
17:15	9.2	9.2	9.2	54	-4.0	2	6	270	0.00	30.211 
17:20	9.0	9.0	9.0	58	-2.7	1	5	315	0.00	30.212 
17:25	9.0	9.0	9.0	57	-3.1	1	3	292	0.00	30.212 
17:30	8.8	8.8	8.8	57	-3.3	1	5	270	0.00	30.212 
17:35	8.6	8.6	8.6	57	-3.5	1	5	338	0.00	30.212 
17:40	8.4	8.4	8.4	57	-3.7	1	4	270	0.00	30.214 
17:45	8.3	8.3	8.3	58	-3.4	1	3	315	0.00	30.214 
17:50	8.1	8.1	8.1	58	-3.6	1	3	292	0.00	30.214 
17:55	7.9	7.9	7.9	57	-4.1	1	3	315	0.00	30.215 
18:00	7.7	7.7	7.7	56	-4.7	1	6	315	0.00	30.215 
18:05	7.7	7.7	7.7	56	-4.7	1	5	315	0.00	30.217 
18:10	7.7	7.7	7.7	55	-5.1	1	3	270	0.00	30.220 
18:15	7.6	7.6	7.6	56	-4.8	1	4	248	0.00	30.221 
18:20	7.6	7.6	7.6	56	-4.8	1	4	248	0.00	30.226 
18:25	7.4	7.4	7.4	56	-5.0	1	3	248	0.00	30.230 
18:30	7.4	7.4	7.4	55	-5.3	1	6	338	0.00	30.231 
18:35	7.4	7.4	7.4	55	-5.3	1	5	315	0.00	30.232 
18:40	7.2	7.2	7.2	56	-5.2	1	4	315	0.00	30.233 
18:45	7.2	7.2	7.2	56	-5.2	1	4	270	0.00	30.234 
18:50	7.0	7.0	7.0	57	-5.0	1	4	338	0.00	30.235 
18:55	7.0	7.0	7.0	57	-5.0	1	4	292	0.00	30.238 
19:00	7.0	7.0	7.0	57	-5.0	1	4	315	0.00	30.237 
19:05	7.0	7.0	7.0	56	-5.3	1	4	270	0.00	30.242 
19:10	6.9	6.9	6.9	55	-5.8	1	3	248	0.00	30.242 
19:15	6.9	6.9	6.9	55	-5.8	0	2	315	0.00	30.245 
19:20	6.9	6.9	6.9	55	-5.8	1	4	270	0.00	30.248 
19:25	6.7	6.7	6.7	55	-6.0	1	3	315	0.00	30.249 
19:30	6.7	6.7	6.7	56	-5.6	1	4	270	0.00	30.250 
19:35	6.7	6.7	6.7	56	-5.6	1	3	248	0.00	30.251 
19:40	6.7	6.7	6.7	56	-5.6	1	5	292	0.00	30.253 
19:45	6.7	6.7	6.7	57	-5.3	1	4	270	0.00	30.254 
19:50	6.5	6.5	6.5	57	-5.4	1	5	270	0.00	30.258 
19:55	6.5	6.5	6.5	57	-5.4	1	3	270	0.00	30.260 
20:00	6.5	6.5	6.5	57	-5.4	0	2	248	0.00	30.260 
20:05	6.5	6.5	6.5	58	-5.1	0	2	270	0.00	30.262 
20:10	6.3	6.3	6.3	58	-5.3	0	2	248	0.00	30.263 
20:15	6.3	6.3	6.3	58	-5.3	0	2	248	0.00	30.263 
20:20	6.3	6.3	6.3	58	-5.3	1	3	248	0.00	30.265 
20:25	6.3	6.3	6.3	58	-5.3	0	2	248	0.00	30.266 
20:30	6.3	6.3	6.3	58	-5.3	1	4	270	0.00	30.268 
20:35	6.3	6.3	6.3	58	-5.3	1	4	248	0.00	30.268 
20:40	6.1	6.1	6.1	58	-5.5	0	1	248	0.00	30.269 
20:45	6.1	6.1	6.1	59	-5.1	0	1	248	0.00	30.269 
20:50	6.1	6.1	6.1	60	-4.8	0	2	248	0.00	30.269 
20:55	6.0	6.0	6.0	60	-4.9	0	2	248	0.00	30.270 
21:00	6.0	6.0	6.0	61	-4.5	0	4	248	0.00	30.271 
21:05	6.0	6.0	6.0	61	-4.5	1	4	248	0.00	30.269 
21:10	6.0	6.0	6.0	62	-4.2	1	3	248	0.00	30.273 
21:15	6.0	6.0	6.0	62	-4.2	0	3	248	0.00	30.273 
21:20	6.0	6.0	6.0	62	-4.2	0	3	248	0.00	30.274 
21:25	6.0	6.0	6.0	62	-4.2	1	7	248	0.00	30.278 
21:30	5.8	5.8	5.8	58	-5.8	1	7	270	0.00	30.278 
21:35	5.8	5.8	5.8	57	-6.1	1	4	270	0.00	30.279 
21:40	5.8	5.8	5.8	56	-6.5	2	7	270	0.00	30.281 
21:45	5.8	5.8	5.8	56	-6.5	1	3	248	0.00	30.282 
21:50	5.6	5.6	5.6	55	-7.0	1	4	270	0.00	30.282 
21:55	5.6	5.6	5.6	55	-7.0	2	8	270	0.00	30.282 
22:00	5.4	5.4	5.4	55	-7.2	2	7	270	0.00	30.284 
22:05	5.4	5.4	5.4	55	-7.2	2	9	270	0.00	30.282 
22:10	5.2	5.2	5.2	55	-7.4	2	9	270	0.00	30.282 
22:15	5.2	5.2	5.2	56	-7.0	1	5	248	0.00	30.283 
22:20	5.0	5.0	5.0	56	-7.2	2	10	248	0.00	30.284 
22:25	5.0	5.0	5.0	55	-7.6	2	9	248	0.00	30.284 
22:30	4.8	4.8	4.8	56	-7.4	1	5	248	0.00	30.284 
22:35	4.7	4.7	4.7	55	-7.9	2	6	248	0.00	30.285 
22:40	4.7	4.7	4.7	54	-8.2	3	7	270	0.00	30.289 
22:45	4.7	4.7	4.7	54	-8.2	3	7	270	0.00	30.289 
22:50	4.5	4.5	4.5	54	-8.4	2	5	270	0.00	30.290 
22:55	4.5	4.5	4.5	55	-8.1	1	4	270	0.00	30.292 
23:00	4.5	4.5	4.5	56	-7.7	1	4	248	0.00	30.293 
23:05	4.3	4.3	4.3	58	-7.2	1	5	248	0.00	30.294 
23:10	4.3	4.3	4.3	59	-6.8	3	6	248	0.00	30.295 
23:15	4.1	4.1	4.1	60	-6.7	2	7	270	0.00	30.297 
23:20	4.1	4.1	4.1	61	-6.3	2	6	270	0.00	30.298 
23:25	3.9	3.9	3.9	61	-6.5	2	10	248	0.00	30.297 
23:30	3.9	3.9	3.9	61	-6.5	1	5	248	0.00	30.298 
23:35	3.7	3.7	3.7	62	-6.4	2	10	270	0.00	30.298 
23:40	3.7	3.7	3.7	61	-6.7	3	10	248	0.00	30.299 
23:45	3.5	3.5	3.5	61	-6.9	3	11	270	0.00	30.300 
23:50	3.5	3.5	3.5	62	-6.6	1	5	270	0.00	30.300 
23:55	3.4	3.4	3.4	61	-7.0	2	7	270	0.00	30.303 

CoCoRaHS
IN-AL-39
A2 Web Hosting
Creative Commons License
GoDaddy
Look for:

loaded 2017-12-11 14:35:45 • last modified 2010-11-18 10:43:29
Privacy PolicyDisclaimer
• wx.awcolley.com is powered by PmWiki v.2002016 •
• all content (unless otherwise noted) © 2017 A W Colley